sensor_id;sensor_type;location;lat;lon;timestamp;temperature;humidity
14531;DHT22;7352;50.866;4.366;2022-10-16T00:01:50;16.20;99.90
14531;DHT22;7352;50.866;4.366;2022-10-16T00:04:34;16.20;99.90
14531;DHT22;7352;50.866;4.366;2022-10-16T00:07:12;16.20;99.90
14531;DHT22;7352;50.866;4.366;2022-10-16T00:09:41;16.10;99.90
14531;DHT22;7352;50.866;4.366;2022-10-16T00:12:19;16.20;99.90
14531;DHT22;7352;50.866;4.366;2022-10-16T00:14:52;16.30;99.90
14531;DHT22;7352;50.866;4.366;2022-10-16T00:17:46;16.20;99.90
14531;DHT22;7352;50.866;4.366;2022-10-16T00:20:21;16.20;99.90
14531;DHT22;7352;50.866;4.366;2022-10-16T00:22:55;16.00;99.90
14531;DHT22;7352;50.866;4.366;2022-10-16T00:25:30;16.10;99.90
14531;DHT22;7352;50.866;4.366;2022-10-16T00:28:35;16.00;99.90
14531;DHT22;7352;50.866;4.366;2022-10-16T00:31:21;16.00;99.90
14531;DHT22;7352;50.866;4.366;2022-10-16T00:34:19;15.90;99.90
14531;DHT22;7352;50.866;4.366;2022-10-16T00:37:07;15.90;99.90
14531;DHT22;7352;50.866;4.366;2022-10-16T00:39:38;16.00;99.90
14531;DHT22;7352;50.866;4.366;2022-10-16T00:44:51;16.00;99.90
14531;DHT22;7352;50.866;4.366;2022-10-16T00:47:24;15.90;99.90
14531;DHT22;7352;50.866;4.366;2022-10-16T00:49:59;15.90;99.90
14531;DHT22;7352;50.866;4.366;2022-10-16T00:52:35;15.80;99.90
14531;DHT22;7352;50.866;4.366;2022-10-16T00:55:06;15.80;99.90
14531;DHT22;7352;50.866;4.366;2022-10-16T01:01:02;15.80;99.90
14531;DHT22;7352;50.866;4.366;2022-10-16T01:03:37;15.70;99.90
14531;DHT22;7352;50.866;4.366;2022-10-16T01:06:28;15.60;99.90
14531;DHT22;7352;50.866;4.366;2022-10-16T01:12:59;15.80;99.90
14531;DHT22;7352;50.866;4.366;2022-10-16T01:18:54;15.70;99.90
14531;DHT22;7352;50.866;4.366;2022-10-16T01:21:35;15.60;99.90
14531;DHT22;7352;50.866;4.366;2022-10-16T01:27:30;15.70;99.90
14531;DHT22;7352;50.866;4.366;2022-10-16T01:30:09;15.70;99.90
14531;DHT22;7352;50.866;4.366;2022-10-16T01:32:46;15.60;99.90
14531;DHT22;7352;50.866;4.366;2022-10-16T01:35:39;15.50;99.90
14531;DHT22;7352;50.866;4.366;2022-10-16T01:38:16;15.60;99.90
14531;DHT22;7352;50.866;4.366;2022-10-16T01:40:48;15.60;99.90
14531;DHT22;7352;50.866;4.366;2022-10-16T01:43:22;15.60;99.90
14531;DHT22;7352;50.866;4.366;2022-10-16T01:46:07;15.60;99.90
14531;DHT22;7352;50.866;4.366;2022-10-16T01:48:36;15.60;99.90
14531;DHT22;7352;50.866;4.366;2022-10-16T01:51:10;15.60;99.90
14531;DHT22;7352;50.866;4.366;2022-10-16T01:53:42;15.60;99.90
14531;DHT22;7352;50.866;4.366;2022-10-16T01:56:13;15.50;99.90
14531;DHT22;7352;50.866;4.366;2022-10-16T01:58:48;15.60;99.90
14531;DHT22;7352;50.866;4.366;2022-10-16T02:01:23;15.60;99.90
14531;DHT22;7352;50.866;4.366;2022-10-16T02:04:11;15.60;99.90
14531;DHT22;7352;50.866;4.366;2022-10-16T02:06:43;15.60;99.90
14531;DHT22;7352;50.866;4.366;2022-10-16T02:09:14;15.60;99.90
14531;DHT22;7352;50.866;4.366;2022-10-16T02:11:43;15.60;99.90
14531;DHT22;7352;50.866;4.366;2022-10-16T02:14:27;15.60;99.90
14531;DHT22;7352;50.866;4.366;2022-10-16T02:17:12;15.60;99.90
14531;DHT22;7352;50.866;4.366;2022-10-16T02:19:46;15.60;99.90
14531;DHT22;7352;50.866;4.366;2022-10-16T02:22:23;15.50;99.90
14531;DHT22;7352;50.866;4.366;2022-10-16T02:25:31;15.50;99.90
14531;DHT22;7352;50.866;4.366;2022-10-16T02:28:06;15.70;99.90
14531;DHT22;7352;50.866;4.366;2022-10-16T02:30:47;15.60;99.90
14531;DHT22;7352;50.866;4.366;2022-10-16T02:33:21;15.60;99.90
14531;DHT22;7352;50.866;4.366;2022-10-16T02:35:55;15.50;99.90
14531;DHT22;7352;50.866;4.366;2022-10-16T02:38:24;15.40;99.90
14531;DHT22;7352;50.866;4.366;2022-10-16T02:41:04;15.30;99.90
14531;DHT22;7352;50.866;4.366;2022-10-16T02:43:34;15.40;99.90
14531;DHT22;7352;50.866;4.366;2022-10-16T02:46:06;15.50;99.90
14531;DHT22;7352;50.866;4.366;2022-10-16T02:48:57;15.50;99.90
14531;DHT22;7352;50.866;4.366;2022-10-16T02:51:26;15.40;99.90
14531;DHT22;7352;50.866;4.366;2022-10-16T02:54:06;15.40;99.90
14531;DHT22;7352;50.866;4.366;2022-10-16T02:56:37;15.50;99.90
14531;DHT22;7352;50.866;4.366;2022-10-16T02:59:04;15.40;99.90
14531;DHT22;7352;50.866;4.366;2022-10-16T03:04:34;15.60;99.90
14531;DHT22;7352;50.866;4.366;2022-10-16T03:07:02;15.50;99.90
14531;DHT22;7352;50.866;4.366;2022-10-16T03:09:31;15.50;99.90
14531;DHT22;7352;50.866;4.366;2022-10-16T03:11:59;15.40;99.90
14531;DHT22;7352;50.866;4.366;2022-10-16T03:14:29;15.40;99.90
14531;DHT22;7352;50.866;4.366;2022-10-16T03:16:59;15.40;99.90
14531;DHT22;7352;50.866;4.366;2022-10-16T03:19:26;15.50;99.90
14531;DHT22;7352;50.866;4.366;2022-10-16T03:21:55;15.60;99.90
14531;DHT22;7352;50.866;4.366;2022-10-16T03:24:24;15.60;99.90
14531;DHT22;7352;50.866;4.366;2022-10-16T03:26:53;15.50;99.90
14531;DHT22;7352;50.866;4.366;2022-10-16T03:29:25;15.50;99.90
14531;DHT22;7352;50.866;4.366;2022-10-16T03:31:53;15.50;99.90
14531;DHT22;7352;50.866;4.366;2022-10-16T03:34:20;15.40;99.90
14531;DHT22;7352;50.866;4.366;2022-10-16T03:36:48;15.60;99.90
14531;DHT22;7352;50.866;4.366;2022-10-16T03:39:16;15.50;99.90
14531;DHT22;7352;50.866;4.366;2022-10-16T03:41:44;15.50;99.90
14531;DHT22;7352;50.866;4.366;2022-10-16T03:44:15;15.60;99.90
14531;DHT22;7352;50.866;4.366;2022-10-16T03:46:43;15.60;99.90
14531;DHT22;7352;50.866;4.366;2022-10-16T03:49:17;15.70;99.90
14531;DHT22;7352;50.866;4.366;2022-10-16T03:51:49;15.50;99.90
14531;DHT22;7352;50.866;4.366;2022-10-16T03:54:23;15.60;99.90
14531;DHT22;7352;50.866;4.366;2022-10-16T03:57:00;15.70;99.90
14531;DHT22;7352;50.866;4.366;2022-10-16T03:59:36;15.60;99.90
14531;DHT22;7352;50.866;4.366;2022-10-16T04:02:46;15.70;99.90
14531;DHT22;7352;50.866;4.366;2022-10-16T04:05:16;15.60;99.90
14531;DHT22;7352;50.866;4.366;2022-10-16T04:07:51;15.50;99.90
14531;DHT22;7352;50.866;4.366;2022-10-16T04:10:33;15.60;99.90
14531;DHT22;7352;50.866;4.366;2022-10-16T04:13:06;15.70;99.90
14531;DHT22;7352;50.866;4.366;2022-10-16T04:15:44;15.40;99.90
14531;DHT22;7352;50.866;4.366;2022-10-16T04:18:24;15.30;99.90
14531;DHT22;7352;50.866;4.366;2022-10-16T04:21:16;15.40;99.90
14531;DHT22;7352;50.866;4.366;2022-10-16T04:24:22;15.30;99.90
14531;DHT22;7352;50.866;4.366;2022-10-16T04:26:44;15.40;99.90
14531;DHT22;7352;50.866;4.366;2022-10-16T04:29:11;15.50;99.90
14531;DHT22;7352;50.866;4.366;2022-10-16T04:31:38;15.40;99.90
14531;DHT22;7352;50.866;4.366;2022-10-16T04:34:05;15.30;99.90
14531;DHT22;7352;50.866;4.366;2022-10-16T04:36:35;15.30;99.90
14531;DHT22;7352;50.866;4.366;2022-10-16T04:39:03;15.40;99.90
14531;DHT22;7352;50.866;4.366;2022-10-16T04:41:32;15.30;99.90
14531;DHT22;7352;50.866;4.366;2022-10-16T04:44:01;15.40;99.90
14531;DHT22;7352;50.866;4.366;2022-10-16T04:46:28;15.40;99.90
14531;DHT22;7352;50.866;4.366;2022-10-16T04:48:57;15.30;99.90
14531;DHT22;7352;50.866;4.366;2022-10-16T04:51:24;15.50;99.90
14531;DHT22;7352;50.866;4.366;2022-10-16T04:53:54;15.50;99.90
14531;DHT22;7352;50.866;4.366;2022-10-16T04:56:21;15.50;99.90
14531;DHT22;7352;50.866;4.366;2022-10-16T04:58:58;15.50;99.90
14531;DHT22;7352;50.866;4.366;2022-10-16T05:04:59;15.40;99.90
14531;DHT22;7352;50.866;4.366;2022-10-16T05:07:45;15.30;99.90
14531;DHT22;7352;50.866;4.366;2022-10-16T05:10:27;15.10;99.90
14531;DHT22;7352;50.866;4.366;2022-10-16T05:13:22;15.10;99.90
14531;DHT22;7352;50.866;4.366;2022-10-16T05:19:31;15.20;99.90
14531;DHT22;7352;50.866;4.366;2022-10-16T05:22:04;15.30;99.90
14531;DHT22;7352;50.866;4.366;2022-10-16T05:24:46;15.20;99.90
14531;DHT22;7352;50.866;4.366;2022-10-16T05:27:14;15.10;99.90
14531;DHT22;7352;50.866;4.366;2022-10-16T05:29:49;15.10;99.90
14531;DHT22;7352;50.866;4.366;2022-10-16T05:32:18;15.20;99.90
14531;DHT22;7352;50.866;4.366;2022-10-16T05:34:50;15.20;99.90
14531;DHT22;7352;50.866;4.366;2022-10-16T05:37:19;15.20;99.90
14531;DHT22;7352;50.866;4.366;2022-10-16T05:39:50;15.20;99.90
14531;DHT22;7352;50.866;4.366;2022-10-16T05:42:26;15.20;99.90
14531;DHT22;7352;50.866;4.366;2022-10-16T05:44:57;15.20;99.90
14531;DHT22;7352;50.866;4.366;2022-10-16T05:47:29;15.30;99.90
14531;DHT22;7352;50.866;4.366;2022-10-16T05:49:58;15.20;99.90
14531;DHT22;7352;50.866;4.366;2022-10-16T05:52:26;15.10;99.90
14531;DHT22;7352;50.866;4.366;2022-10-16T05:55:01;15.20;99.90
14531;DHT22;7352;50.866;4.366;2022-10-16T05:57:29;15.20;99.90
14531;DHT22;7352;50.866;4.366;2022-10-16T06:03:34;15.00;99.90
14531;DHT22;7352;50.866;4.366;2022-10-16T06:06:09;14.90;99.90
14531;DHT22;7352;50.866;4.366;2022-10-16T06:08:44;14.80;99.90
14531;DHT22;7352;50.866;4.366;2022-10-16T06:11:14;14.90;99.90
14531;DHT22;7352;50.866;4.366;2022-10-16T06:13:42;14.90;99.90
14531;DHT22;7352;50.866;4.366;2022-10-16T06:16:13;15.00;99.90
14531;DHT22;7352;50.866;4.366;2022-10-16T06:18:46;15.00;99.90
14531;DHT22;7352;50.866;4.366;2022-10-16T06:21:18;15.10;99.90
14531;DHT22;7352;50.866;4.366;2022-10-16T06:23:48;15.00;99.90
14531;DHT22;7352;50.866;4.366;2022-10-16T06:26:17;15.10;99.90
14531;DHT22;7352;50.866;4.366;2022-10-16T06:28:46;15.10;99.90
14531;DHT22;7352;50.866;4.366;2022-10-16T06:31:14;15.20;99.90
14531;DHT22;7352;50.866;4.366;2022-10-16T06:33:41;15.30;99.90
14531;DHT22;7352;50.866;4.366;2022-10-16T06:36:10;15.30;99.90
14531;DHT22;7352;50.866;4.366;2022-10-16T06:38:44;15.40;99.90
14531;DHT22;7352;50.866;4.366;2022-10-16T06:41:32;15.30;99.90
14531;DHT22;7352;50.866;4.366;2022-10-16T06:44:20;15.20;99.90
14531;DHT22;7352;50.866;4.366;2022-10-16T06:47:14;15.30;99.90
14531;DHT22;7352;50.866;4.366;2022-10-16T06:50:18;15.40;99.90
14531;DHT22;7352;50.866;4.366;2022-10-16T06:53:20;15.40;99.90
14531;DHT22;7352;50.866;4.366;2022-10-16T06:59:28;15.40;99.90
14531;DHT22;7352;50.866;4.366;2022-10-16T07:12:13;15.30;99.90
14531;DHT22;7352;50.866;4.366;2022-10-16T07:15:08;15.40;99.90
14531;DHT22;7352;50.866;4.366;2022-10-16T07:17:57;15.30;99.90
14531;DHT22;7352;50.866;4.366;2022-10-16T07:21:21;15.30;99.90
14531;DHT22;7352;50.866;4.366;2022-10-16T07:27:23;15.50;99.90
14531;DHT22;7352;50.866;4.366;2022-10-16T07:41:44;15.50;99.90
14531;DHT22;7352;50.866;4.366;2022-10-16T07:44:24;15.70;99.90
14531;DHT22;7352;50.866;4.366;2022-10-16T07:46:52;15.60;99.90
14531;DHT22;7352;50.866;4.366;2022-10-16T07:49:21;15.70;99.90
14531;DHT22;7352;50.866;4.366;2022-10-16T07:51:48;15.80;99.90
14531;DHT22;7352;50.866;4.366;2022-10-16T07:54:29;16.00;99.90
14531;DHT22;7352;50.866;4.366;2022-10-16T07:57:02;16.00;99.90
14531;DHT22;7352;50.866;4.366;2022-10-16T07:59:31;16.00;99.90
14531;DHT22;7352;50.866;4.366;2022-10-16T08:02:01;16.10;99.90
14531;DHT22;7352;50.866;4.366;2022-10-16T08:04:31;16.00;99.90
14531;DHT22;7352;50.866;4.366;2022-10-16T08:07:02;16.00;99.90
14531;DHT22;7352;50.866;4.366;2022-10-16T08:10:09;16.00;99.90
14531;DHT22;7352;50.866;4.366;2022-10-16T08:12:48;16.00;99.90
14531;DHT22;7352;50.866;4.366;2022-10-16T08:15:18;15.90;99.90
14531;DHT22;7352;50.866;4.366;2022-10-16T08:18:01;15.90;99.90
14531;DHT22;7352;50.866;4.366;2022-10-16T08:20:35;15.90;99.90
14531;DHT22;7352;50.866;4.366;2022-10-16T08:23:09;16.00;99.90
14531;DHT22;7352;50.866;4.366;2022-10-16T08:25:56;16.10;99.90
14531;DHT22;7352;50.866;4.366;2022-10-16T08:28:26;16.10;99.90
14531;DHT22;7352;50.866;4.366;2022-10-16T08:31:11;16.00;99.90
14531;DHT22;7352;50.866;4.366;2022-10-16T08:33:43;16.10;99.90
14531;DHT22;7352;50.866;4.366;2022-10-16T08:36:28;16.10;99.90
14531;DHT22;7352;50.866;4.366;2022-10-16T08:39:09;16.20;99.90
14531;DHT22;7352;50.866;4.366;2022-10-16T08:42:04;16.40;99.90
14531;DHT22;7352;50.866;4.366;2022-10-16T08:45:09;16.40;99.90
14531;DHT22;7352;50.866;4.366;2022-10-16T08:47:54;16.50;99.90
14531;DHT22;7352;50.866;4.366;2022-10-16T08:50:41;16.30;99.90
14531;DHT22;7352;50.866;4.366;2022-10-16T08:53:18;16.40;99.90
14531;DHT22;7352;50.866;4.366;2022-10-16T08:55:52;16.60;99.90
14531;DHT22;7352;50.866;4.366;2022-10-16T08:58:45;16.70;99.90
14531;DHT22;7352;50.866;4.366;2022-10-16T09:01:17;16.70;99.90
14531;DHT22;7352;50.866;4.366;2022-10-16T09:04:51;16.70;99.90
14531;DHT22;7352;50.866;4.366;2022-10-16T09:07:51;16.80;99.90
14531;DHT22;7352;50.866;4.366;2022-10-16T09:10:38;16.70;99.90
14531;DHT22;7352;50.866;4.366;2022-10-16T09:13:17;16.90;99.90
14531;DHT22;7352;50.866;4.366;2022-10-16T09:16:44;16.90;99.90
14531;DHT22;7352;50.866;4.366;2022-10-16T09:19:40;16.90;99.90
14531;DHT22;7352;50.866;4.366;2022-10-16T09:22:24;16.90;99.90
14531;DHT22;7352;50.866;4.366;2022-10-16T09:25:00;17.00;99.90
14531;DHT22;7352;50.866;4.366;2022-10-16T09:27:28;17.00;99.90
14531;DHT22;7352;50.866;4.366;2022-10-16T09:29:56;17.10;99.90
14531;DHT22;7352;50.866;4.366;2022-10-16T09:32:29;17.10;99.90
14531;DHT22;7352;50.866;4.366;2022-10-16T09:35:14;17.10;99.90
14531;DHT22;7352;50.866;4.366;2022-10-16T09:37:54;17.10;99.90
14531;DHT22;7352;50.866;4.366;2022-10-16T09:43:28;17.20;99.90
14531;DHT22;7352;50.866;4.366;2022-10-16T09:46:19;17.40;99.90
14531;DHT22;7352;50.866;4.366;2022-10-16T09:49:20;17.50;99.90
14531;DHT22;7352;50.866;4.366;2022-10-16T09:51:47;17.60;99.90
14531;DHT22;7352;50.866;4.366;2022-10-16T09:54:48;17.70;99.90
14531;DHT22;7352;50.866;4.366;2022-10-16T09:57:48;17.80;99.90
14531;DHT22;7352;50.866;4.366;2022-10-16T10:00:18;18.00;99.90
14531;DHT22;7352;50.866;4.366;2022-10-16T10:03:00;18.10;99.90
14531;DHT22;7352;50.866;4.366;2022-10-16T10:05:48;18.10;99.90
14531;DHT22;7352;50.866;4.366;2022-10-16T10:08:40;18.20;99.90
14531;DHT22;7352;50.866;4.366;2022-10-16T10:11:11;18.30;99.90
14531;DHT22;7352;50.866;4.366;2022-10-16T10:14:17;18.30;99.90
14531;DHT22;7352;50.866;4.366;2022-10-16T10:17:13;18.30;99.90
14531;DHT22;7352;50.866;4.366;2022-10-16T10:19:59;18.30;99.90
14531;DHT22;7352;50.866;4.366;2022-10-16T10:39:08;18.40;99.90
14531;DHT22;7352;50.866;4.366;2022-10-16T10:41:59;18.90;99.90
14531;DHT22;7352;50.866;4.366;2022-10-16T10:44:42;19.10;99.90
14531;DHT22;7352;50.866;4.366;2022-10-16T10:47:19;19.20;99.90
14531;DHT22;7352;50.866;4.366;2022-10-16T10:49:56;19.40;99.90
14531;DHT22;7352;50.866;4.366;2022-10-16T10:52:43;19.50;99.90
14531;DHT22;7352;50.866;4.366;2022-10-16T10:55:31;19.50;99.90
14531;DHT22;7352;50.866;4.366;2022-10-16T10:58:46;19.40;99.90
14531;DHT22;7352;50.866;4.366;2022-10-16T11:01:25;19.30;99.90
14531;DHT22;7352;50.866;4.366;2022-10-16T11:04:32;19.30;99.90
14531;DHT22;7352;50.866;4.366;2022-10-16T11:07:18;19.40;99.90
14531;DHT22;7352;50.866;4.366;2022-10-16T11:09:52;19.30;99.90
14531;DHT22;7352;50.866;4.366;2022-10-16T11:12:42;19.40;99.90
14531;DHT22;7352;50.866;4.366;2022-10-16T11:15:29;19.50;99.90
14531;DHT22;7352;50.866;4.366;2022-10-16T11:18:06;19.40;99.90
14531;DHT22;7352;50.866;4.366;2022-10-16T11:20:39;19.40;99.90
14531;DHT22;7352;50.866;4.366;2022-10-16T11:23:38;19.40;99.90
14531;DHT22;7352;50.866;4.366;2022-10-16T11:26:16;19.60;99.90
14531;DHT22;7352;50.866;4.366;2022-10-16T11:28:53;19.80;99.90
14531;DHT22;7352;50.866;4.366;2022-10-16T11:31:31;20.00;99.90
14531;DHT22;7352;50.866;4.366;2022-10-16T11:34:21;20.00;99.90
14531;DHT22;7352;50.866;4.366;2022-10-16T11:37:08;20.00;99.90
14531;DHT22;7352;50.866;4.366;2022-10-16T11:40:28;19.80;99.90
14531;DHT22;7352;50.866;4.366;2022-10-16T11:43:22;19.80;99.90
14531;DHT22;7352;50.866;4.366;2022-10-16T11:50:04;20.10;99.90
14531;DHT22;7352;50.866;4.366;2022-10-16T11:52:58;20.40;99.90
14531;DHT22;7352;50.866;4.366;2022-10-16T11:55:32;20.20;99.90
14531;DHT22;7352;50.866;4.366;2022-10-16T11:58:07;20.10;99.90
14531;DHT22;7352;50.866;4.366;2022-10-16T12:00:57;20.00;99.90
14531;DHT22;7352;50.866;4.366;2022-10-16T12:03:43;19.90;99.90
14531;DHT22;7352;50.866;4.366;2022-10-16T12:09:54;20.30;99.90
14531;DHT22;7352;50.866;4.366;2022-10-16T12:12:28;20.60;99.90
14531;DHT22;7352;50.866;4.366;2022-10-16T12:15:28;20.60;99.90
14531;DHT22;7352;50.866;4.366;2022-10-16T12:18:24;20.90;99.90
14531;DHT22;7352;50.866;4.366;2022-10-16T12:21:01;20.90;99.90
14531;DHT22;7352;50.866;4.366;2022-10-16T12:23:46;20.80;99.90
14531;DHT22;7352;50.866;4.366;2022-10-16T12:26:55;20.60;99.90
14531;DHT22;7352;50.866;4.366;2022-10-16T12:29:56;20.60;99.90
14531;DHT22;7352;50.866;4.366;2022-10-16T12:32:37;20.50;99.90
14531;DHT22;7352;50.866;4.366;2022-10-16T12:35:18;20.60;99.90
14531;DHT22;7352;50.866;4.366;2022-10-16T12:38:08;20.70;99.90
14531;DHT22;7352;50.866;4.366;2022-10-16T12:40:47;20.70;99.90
14531;DHT22;7352;50.866;4.366;2022-10-16T12:43:34;20.80;99.90
14531;DHT22;7352;50.866;4.366;2022-10-16T12:46:22;20.70;99.90
14531;DHT22;7352;50.866;4.366;2022-10-16T12:48:51;20.90;99.90
14531;DHT22;7352;50.866;4.366;2022-10-16T12:51:40;20.90;99.90
14531;DHT22;7352;50.866;4.366;2022-10-16T12:54:27;21.10;99.90
14531;DHT22;7352;50.866;4.366;2022-10-16T12:57:13;21.00;99.90
14531;DHT22;7352;50.866;4.366;2022-10-16T13:00:17;21.00;99.90
14531;DHT22;7352;50.866;4.366;2022-10-16T13:06:08;21.20;99.90
14531;DHT22;7352;50.866;4.366;2022-10-16T13:12:23;21.50;99.90
14531;DHT22;7352;50.866;4.366;2022-10-16T13:18:47;21.60;98.90
14531;DHT22;7352;50.866;4.366;2022-10-16T13:21:33;21.60;99.40
14531;DHT22;7352;50.866;4.366;2022-10-16T13:24:13;21.60;99.60
14531;DHT22;7352;50.866;4.366;2022-10-16T13:27:06;21.60;99.70
14531;DHT22;7352;50.866;4.366;2022-10-16T13:29:38;21.70;99.70
14531;DHT22;7352;50.866;4.366;2022-10-16T13:32:10;21.50;99.90
14531;DHT22;7352;50.866;4.366;2022-10-16T13:34:56;21.60;99.90
14531;DHT22;7352;50.866;4.366;2022-10-16T13:37:26;21.70;99.90
14531;DHT22;7352;50.866;4.366;2022-10-16T13:40:22;21.70;99.90
14531;DHT22;7352;50.866;4.366;2022-10-16T13:42:54;21.70;99.90
14531;DHT22;7352;50.866;4.366;2022-10-16T13:45:26;21.70;99.90
14531;DHT22;7352;50.866;4.366;2022-10-16T13:48:09;21.70;99.90
14531;DHT22;7352;50.866;4.366;2022-10-16T13:50:48;21.80;99.90
14531;DHT22;7352;50.866;4.366;2022-10-16T13:53:29;21.90;99.90
14531;DHT22;7352;50.866;4.366;2022-10-16T13:56:12;21.80;99.90
14531;DHT22;7352;50.866;4.366;2022-10-16T13:58:43;21.60;99.90
14531;DHT22;7352;50.866;4.366;2022-10-16T14:01:22;21.50;99.90
14531;DHT22;7352;50.866;4.366;2022-10-16T14:03:51;21.40;99.90
14531;DHT22;7352;50.866;4.366;2022-10-16T14:06:21;21.40;99.90
14531;DHT22;7352;50.866;4.366;2022-10-16T14:08:54;21.60;99.90
14531;DHT22;7352;50.866;4.366;2022-10-16T14:11:25;21.60;99.40
14531;DHT22;7352;50.866;4.366;2022-10-16T14:13:59;21.60;99.70
14531;DHT22;7352;50.866;4.366;2022-10-16T14:16:36;21.50;99.60
14531;DHT22;7352;50.866;4.366;2022-10-16T14:19:20;21.50;99.40
14531;DHT22;7352;50.866;4.366;2022-10-16T14:22:03;21.40;99.90
14531;DHT22;7352;50.866;4.366;2022-10-16T14:24:46;21.60;99.90
14531;DHT22;7352;50.866;4.366;2022-10-16T14:27:33;21.70;99.90
14531;DHT22;7352;50.866;4.366;2022-10-16T14:30:23;21.90;99.80
14531;DHT22;7352;50.866;4.366;2022-10-16T14:33:02;21.80;99.80
14531;DHT22;7352;50.866;4.366;2022-10-16T14:35:33;21.70;99.90
14531;DHT22;7352;50.866;4.366;2022-10-16T14:38:03;21.60;99.90
14531;DHT22;7352;50.866;4.366;2022-10-16T14:40:34;21.70;99.90
14531;DHT22;7352;50.866;4.366;2022-10-16T14:43:05;21.60;99.90
14531;DHT22;7352;50.866;4.366;2022-10-16T14:45:34;21.60;99.90
14531;DHT22;7352;50.866;4.366;2022-10-16T14:48:06;21.60;99.90
14531;DHT22;7352;50.866;4.366;2022-10-16T14:50:41;21.60;99.90
14531;DHT22;7352;50.866;4.366;2022-10-16T14:53:11;21.70;99.90
14531;DHT22;7352;50.866;4.366;2022-10-16T14:55:40;21.70;99.90
14531;DHT22;7352;50.866;4.366;2022-10-16T14:58:11;21.80;99.90
14531;DHT22;7352;50.866;4.366;2022-10-16T15:00:41;21.90;99.90
14531;DHT22;7352;50.866;4.366;2022-10-16T15:03:09;21.80;99.90
14531;DHT22;7352;50.866;4.366;2022-10-16T15:05:37;21.70;99.90
14531;DHT22;7352;50.866;4.366;2022-10-16T15:08:04;21.70;99.90
14531;DHT22;7352;50.866;4.366;2022-10-16T15:10:40;21.80;99.90
14531;DHT22;7352;50.866;4.366;2022-10-16T15:13:15;21.70;99.90
14531;DHT22;7352;50.866;4.366;2022-10-16T15:15:46;21.70;99.90
14531;DHT22;7352;50.866;4.366;2022-10-16T15:18:15;21.60;99.90
14531;DHT22;7352;50.866;4.366;2022-10-16T15:20:47;21.60;99.90
14531;DHT22;7352;50.866;4.366;2022-10-16T15:23:17;21.60;99.90
14531;DHT22;7352;50.866;4.366;2022-10-16T15:25:47;21.50;99.90
14531;DHT22;7352;50.866;4.366;2022-10-16T15:28:17;21.50;99.90
14531;DHT22;7352;50.866;4.366;2022-10-16T15:30:45;21.40;99.90
14531;DHT22;7352;50.866;4.366;2022-10-16T15:33:14;21.40;99.90
14531;DHT22;7352;50.866;4.366;2022-10-16T15:35:42;21.30;99.90
14531;DHT22;7352;50.866;4.366;2022-10-16T15:38:16;21.30;99.90
14531;DHT22;7352;50.866;4.366;2022-10-16T15:40:47;21.30;99.90
14531;DHT22;7352;50.866;4.366;2022-10-16T15:43:16;21.30;99.90
14531;DHT22;7352;50.866;4.366;2022-10-16T15:45:58;21.20;99.90
14531;DHT22;7352;50.866;4.366;2022-10-16T15:48:39;21.20;99.90
14531;DHT22;7352;50.866;4.366;2022-10-16T15:51:17;21.10;99.90
14531;DHT22;7352;50.866;4.366;2022-10-16T15:53:44;21.10;99.90
14531;DHT22;7352;50.866;4.366;2022-10-16T15:56:17;21.00;99.90
14531;DHT22;7352;50.866;4.366;2022-10-16T15:58:54;21.00;99.90
14531;DHT22;7352;50.866;4.366;2022-10-16T16:01:37;21.10;99.90
14531;DHT22;7352;50.866;4.366;2022-10-16T16:04:20;21.00;99.90
14531;DHT22;7352;50.866;4.366;2022-10-16T16:06:47;20.80;99.90
14531;DHT22;7352;50.866;4.366;2022-10-16T16:09:15;20.80;99.90
14531;DHT22;7352;50.866;4.366;2022-10-16T16:11:45;20.70;99.90
14531;DHT22;7352;50.866;4.366;2022-10-16T16:14:26;20.80;99.90
14531;DHT22;7352;50.866;4.366;2022-10-16T16:16:54;20.70;99.90
14531;DHT22;7352;50.866;4.366;2022-10-16T16:19:53;20.60;99.90
14531;DHT22;7352;50.866;4.366;2022-10-16T16:22:34;20.60;99.90
14531;DHT22;7352;50.866;4.366;2022-10-16T16:25:09;20.50;99.90
14531;DHT22;7352;50.866;4.366;2022-10-16T16:27:42;20.50;99.90
14531;DHT22;7352;50.866;4.366;2022-10-16T16:30:14;20.40;99.90
14531;DHT22;7352;50.866;4.366;2022-10-16T16:32:43;20.50;99.90
14531;DHT22;7352;50.866;4.366;2022-10-16T16:35:10;20.50;99.90
14531;DHT22;7352;50.866;4.366;2022-10-16T16:37:38;20.40;99.90
14531;DHT22;7352;50.866;4.366;2022-10-16T16:40:08;20.30;99.90
14531;DHT22;7352;50.866;4.366;2022-10-16T16:42:35;20.20;99.90
14531;DHT22;7352;50.866;4.366;2022-10-16T16:45:04;20.20;99.90
14531;DHT22;7352;50.866;4.366;2022-10-16T16:47:32;20.10;99.90
14531;DHT22;7352;50.866;4.366;2022-10-16T16:49:59;20.10;99.90
14531;DHT22;7352;50.866;4.366;2022-10-16T16:52:30;20.10;99.90
14531;DHT22;7352;50.866;4.366;2022-10-16T16:54:57;20.10;99.90
14531;DHT22;7352;50.866;4.366;2022-10-16T16:57:25;20.00;99.90
14531;DHT22;7352;50.866;4.366;2022-10-16T16:59:53;20.00;99.90
14531;DHT22;7352;50.866;4.366;2022-10-16T17:04:57;20.00;99.90
14531;DHT22;7352;50.866;4.366;2022-10-16T17:07:24;20.00;99.90
14531;DHT22;7352;50.866;4.366;2022-10-16T17:09:52;20.10;99.90
14531;DHT22;7352;50.866;4.366;2022-10-16T17:12:19;20.20;99.90
14531;DHT22;7352;50.866;4.366;2022-10-16T17:14:46;20.00;99.90
14531;DHT22;7352;50.866;4.366;2022-10-16T17:17:13;19.90;99.90
14531;DHT22;7352;50.866;4.366;2022-10-16T17:19:40;19.80;99.90
14531;DHT22;7352;50.866;4.366;2022-10-16T17:22:08;19.70;99.90
14531;DHT22;7352;50.866;4.366;2022-10-16T17:24:38;19.70;99.90
14531;DHT22;7352;50.866;4.366;2022-10-16T17:27:05;19.60;99.90
14531;DHT22;7352;50.866;4.366;2022-10-16T17:29:33;19.60;99.90
14531;DHT22;7352;50.866;4.366;2022-10-16T17:32:02;19.50;99.90
14531;DHT22;7352;50.866;4.366;2022-10-16T17:34:29;19.50;99.90
14531;DHT22;7352;50.866;4.366;2022-10-16T17:36:56;19.40;99.90
14531;DHT22;7352;50.866;4.366;2022-10-16T17:39:24;19.30;99.90
14531;DHT22;7352;50.866;4.366;2022-10-16T17:41:52;19.30;99.90
14531;DHT22;7352;50.866;4.366;2022-10-16T17:44:19;19.10;99.90
14531;DHT22;7352;50.866;4.366;2022-10-16T17:46:46;19.00;99.90
14531;DHT22;7352;50.866;4.366;2022-10-16T17:49:13;19.00;99.90
14531;DHT22;7352;50.866;4.366;2022-10-16T17:51:41;19.00;99.90
14531;DHT22;7352;50.866;4.366;2022-10-16T17:54:08;18.90;99.90
14531;DHT22;7352;50.866;4.366;2022-10-16T17:56:37;18.90;99.90
14531;DHT22;7352;50.866;4.366;2022-10-16T17:59:04;18.80;99.90
14531;DHT22;7352;50.866;4.366;2022-10-16T18:01:34;18.70;99.90
14531;DHT22;7352;50.866;4.366;2022-10-16T18:04:03;18.60;99.90
14531;DHT22;7352;50.866;4.366;2022-10-16T18:06:32;18.70;99.90
14531;DHT22;7352;50.866;4.366;2022-10-16T18:08:59;18.70;99.90
14531;DHT22;7352;50.866;4.366;2022-10-16T18:11:27;18.70;99.90
14531;DHT22;7352;50.866;4.366;2022-10-16T18:13:57;18.70;99.90
14531;DHT22;7352;50.866;4.366;2022-10-16T18:16:26;18.80;99.90
14531;DHT22;7352;50.866;4.366;2022-10-16T18:18:54;18.80;99.90
14531;DHT22;7352;50.866;4.366;2022-10-16T18:21:22;18.70;99.90
14531;DHT22;7352;50.866;4.366;2022-10-16T18:23:52;18.60;99.90
14531;DHT22;7352;50.866;4.366;2022-10-16T18:26:20;18.50;99.90
14531;DHT22;7352;50.866;4.366;2022-10-16T18:28:47;18.60;99.90